Al Cenac — WDD5445 — position and weather

sailwx.info

Track history (hours):
 
Tides and Currents Weather Stations Pressure Air Temp Water Temp Dewpoint Dewpoint Depression Visibility Wind Speed Wind Dir Waves Ship Positions

Al Cenac

Owner: Caillou Island Towing Co, Inc., Houma, LA. More information available from US FCC via Universal Licensing System and Coast Guard Vessel Documentation Center.

Last reported at 2017-Feb-26 07:33 UTC. Time now 2017-Feb-26 07:41 UTC.
Position N 40°38' W 074°08'.

; draft 10 m.

Type: Tug. MMSI: 367158530.

Date/timePositionNaut miles runAvg speedWind from/ knotsBaromVisibWave heightAir tempDewpointWater temp
2017-Feb-26 07:33N 40°38' W 074°08'4 3.6
2017-Feb-26 06:33N 40°42' W 074°07'2 2.0
2017-Feb-26 05:33N 40°40' W 074°08'2 1.7
2017-Feb-26 04:33N 40°38' W 074°08'0 0.0
2017-Feb-26 03:33N 40°38' W 074°08'0 0.0
2017-Feb-26 02:33N 40°38' W 074°08'0 0.0
2017-Feb-26 01:33N 40°38' W 074°08'0 0.0
2017-Feb-26 00:31N 40°38' W 074°08'3 2.9
2017-Feb-25 23:33N 40°38' W 074°12'2 2.1
2017-Feb-25 22:33N 40°36' W 074°12'0 0.0
2017-Feb-25 21:33N 40°36' W 074°12'0 0.0
2017-Feb-25 20:32N 40°36' W 074°12'0 0.0
2017-Feb-25 19:33N 40°36' W 074°12'0 0.0
2017-Feb-25 18:32N 40°36' W 074°12'0 0.0
2017-Feb-25 17:33N 40°36' W 074°12'0 0.0
2017-Feb-25 16:34N 40°36' W 074°12'0 0.0
2017-Feb-25 15:33N 40°36' W 074°12'0 0.0
2017-Feb-25 14:33N 40°36' W 074°12'0 0.2
2017-Feb-25 13:21N 40°36' W 074°12'0 0.2
2017-Feb-25 12:28N 40°36' W 074°12'0 0.0
2017-Feb-25 11:33N 40°36' W 074°12'0 0.0
2017-Feb-25 10:33N 40°36' W 074°12'0 0.0
2017-Feb-25 09:33N 40°36' W 074°12'1 1.1
2017-Feb-25 08:29N 40°35' W 074°13'1 0.7
2017-Feb-25 07:33N 40°36' W 074°12'0 0.0
2017-Feb-25 06:33N 40°36' W 074°12'2 1.0
2017-Feb-25 04:31N 40°34' W 074°13'2 0.5
2017-Feb-25 00:23N 40°36' W 074°12'4 5.3
2017-Feb-24 23:33N 40°38' W 074°08'0 0.0
2017-Feb-24 22:28N 40°38' W 074°08'0 0.1
2017-Feb-24 21:33N 40°38' W 074°08'0 0.0
2017-Feb-24 20:33N 40°38' W 074°08'0 0.0
2017-Feb-24 19:33N 40°38' W 074°08'0 0.0
2017-Feb-24 18:33N 40°38' W 074°08'0 0.0
2017-Feb-24 17:33N 40°38' W 074°08'3 3.4
2017-Feb-24 16:33N 40°38' W 074°12'1 0.8
2017-Feb-24 15:33N 40°38' W 074°12'3 2.9
2017-Feb-24 14:32N 40°38' W 074°08'0 0.0
2017-Feb-24 13:32N 40°38' W 074°08'0 0.0
2017-Feb-24 12:33N 40°38' W 074°08'0 0.0
2017-Feb-24 11:33N 40°38' W 074°08'0 0.0
2017-Feb-24 10:33N 40°38' W 074°08'0 0.0
2017-Feb-24 09:33N 40°38' W 074°08'2 1.8
2017-Feb-24 08:33N 40°39' W 074°06'0 0.2
2017-Feb-24 06:33N 40°39' W 074°05'1 1.2
2017-Feb-24 05:33N 40°39' W 074°07'1 0.9
2017-Feb-24 04:32N 40°38' W 074°08'0 0.0
2017-Feb-24 03:33N 40°38' W 074°08'0 0.0
2017-Feb-24 02:33N 40°38' W 074°08'0 0.0
2017-Feb-24 01:33N 40°38' W 074°08'0 0.0
2017-Feb-24 00:33N 40°38' W 074°08'0 0.0
2017-Feb-23 23:33N 40°38' W 074°08'0 0.0
2017-Feb-23 22:29N 40°38' W 074°08'3 3.1
2017-Feb-23 21:33N 40°39' W 074°04'4 3.8
2017-Feb-23 20:33N 40°41' W 074°00'4 3.6
2017-Feb-23 19:33N 40°40' W 074°04'7 1.0
2017-Feb-23 12:21N 40°36' W 074°12'4 5.2
2017-Feb-23 11:33N 40°39' W 074°08'0 0.4
2017-Feb-23 10:33N 40°38' W 074°08'0 0.0
2017-Feb-23 09:33N 40°38' W 074°08'0 0.0
2017-Feb-23 08:33N 40°38' W 074°08'0 0.0
2017-Feb-23 07:33N 40°38' W 074°08'0 0.0
2017-Feb-23 06:33N 40°38' W 074°08'0 0.0
2017-Feb-23 05:33N 40°38' W 074°08'0 0.0
2017-Feb-23 04:33N 40°38' W 074°08'0 0.0
2017-Feb-23 03:33N 40°38' W 074°08'0 0.0
2017-Feb-23 02:33N 40°38' W 074°08'0 0.0
2017-Feb-23 01:30N 40°38' W 074°08'0 0.0
2017-Feb-23 00:33N 40°38' W 074°08'0 0.0
2017-Feb-22 23:33N 40°38' W 074°08'0 0.0
2017-Feb-22 22:33N 40°38' W 074°08'0 0.0
2017-Feb-22 21:33N 40°38' W 074°08'0 0.0
2017-Feb-22 20:33N 40°38' W 074°08'0 0.0
2017-Feb-22 19:33N 40°38' W 074°08'0 0.0
2017-Feb-22 18:33N 40°38' W 074°08'0 0.0
2017-Feb-22 17:33N 40°38' W 074°08'1 0.5
2017-Feb-22 16:33N 40°39' W 074°07'0 0.1
2017-Feb-22 15:33N 40°39' W 074°07'0 0.5
2017-Feb-22 14:33N 40°38' W 074°08'0 0.0
2017-Feb-22 13:33N 40°38' W 074°08'0 0.0
2017-Feb-22 12:33N 40°38' W 074°08'3 2.9
2017-Feb-22 11:33N 40°40' W 074°05'1 1.2
2017-Feb-22 10:33N 40°39' W 074°05'2 2.4
2017-Feb-22 09:33N 40°38' W 074°08'0 0.0
2017-Feb-22 08:33N 40°38' W 074°08'0 0.0
2017-Feb-22 07:33N 40°38' W 074°08'0 0.0
2017-Feb-22 06:33N 40°38' W 074°08'0 0.0
2017-Feb-22 05:33N 40°38' W 074°08'0 0.0
2017-Feb-22 04:33N 40°38' W 074°08'0 0.0
2017-Feb-22 03:33N 40°38' W 074°08'0 0.0
2017-Feb-22 02:33N 40°38' W 074°08'0 0.0
2017-Feb-22 01:33N 40°38' W 074°08'0 0.0
2017-Feb-22 00:33N 40°38' W 074°08'0 0.0
2017-Feb-21 23:33N 40°38' W 074°08'0 0.0
2017-Feb-21 21:33N 40°38' W 074°08'0 0.0
2017-Feb-21 20:33N 40°38' W 074°08'0 0.0
2017-Feb-21 19:33N 40°38' W 074°08'0 0.0
2017-Feb-21 18:33N 40°38' W 074°08'0 0.0
2017-Feb-21 17:33N 40°38' W 074°08'0 0.0
2017-Feb-21 16:33N 40°38' W 074°08'0 0.0
2017-Feb-21 15:33N 40°38' W 074°08'0 0.0
2017-Feb-21 14:33N 40°38' W 074°08'0 0.0
2017-Feb-21 13:33N 40°38' W 074°08'0 0.0
2017-Feb-21 12:33N 40°38' W 074°08'0 0.0
2017-Feb-21 11:33N 40°38' W 074°08'3 3.0
2017-Feb-21 10:33N 40°39' W 074°04'3 3.5
2017-Feb-21 09:33N 40°39' W 074°08'4 3.9
2017-Feb-21 08:33N 40°36' W 074°12'0 0.0
2017-Feb-21 07:33N 40°36' W 074°12'0 0.0
2017-Feb-21 06:33N 40°36' W 074°12'0 0.0
2017-Feb-21 05:33N 40°36' W 074°12'0 0.0
2017-Feb-21 04:33N 40°36' W 074°12'0 0.0
2017-Feb-21 03:33N 40°36' W 074°12'0 0.0
2017-Feb-21 02:33N 40°36' W 074°12'0 0.0
2017-Feb-21 01:29N 40°36' W 074°12'0 0.0
2017-Feb-21 00:33N 40°36' W 074°12'0 0.0
2017-Feb-20 23:12N 40°36' W 074°12'0 0.6
2017-Feb-20 22:32N 40°35' W 074°12'0 0.4
2017-Feb-20 21:33N 40°36' W 074°12'0 0.0
2017-Feb-20 20:33N 40°36' W 074°12'3 2.3
2017-Feb-20 19:04N 40°33' W 074°15'1 1.4
2017-Feb-20 18:33N 40°32' W 074°15'0 0.0
2017-Feb-20 17:33N 40°32' W 074°15'4 3.9
2017-Feb-20 16:30N 40°36' W 074°12'0 0.0
2017-Feb-20 15:24N 40°36' W 074°12'0 0.0
2017-Feb-20 14:33N 40°36' W 074°12'0 0.0
2017-Feb-20 13:33N 40°36' W 074°12'1 0.2
2017-Feb-20 10:27N 40°36' W 074°12'3 3.0
2017-Feb-20 09:33N 40°39' W 074°11'2 2.3
2017-Feb-20 08:33N 40°38' W 074°08'0 0.2
2017-Feb-20 07:30N 40°39' W 074°08'0 0.0
2017-Feb-20 06:33N 40°38' W 074°08'0 0.0
2017-Feb-20 05:33N 40°38' W 074°08'0 0.0
2017-Feb-20 04:33N 40°38' W 074°08'0 0.0
2017-Feb-20 03:33N 40°38' W 074°08'0 0.0
2017-Feb-20 02:33N 40°38' W 074°08'0 0.0
2017-Feb-20 01:33N 40°38' W 074°08'0 0.0
2017-Feb-20 00:33N 40°38' W 074°08'0 0.0
2017-Feb-19 23:33N 40°38' W 074°08'0 0.0
2017-Feb-19 22:33N 40°38' W 074°08'0 0.0
2017-Feb-19 21:33N 40°38' W 074°08'0 0.0
2017-Feb-19 20:33N 40°38' W 074°08'0 0.0
2017-Feb-19 19:33N 40°38' W 074°08'0 0.0
2017-Feb-19 18:33N 40°38' W 074°08'0 0.0
2017-Feb-19 17:33N 40°38' W 074°08'0 0.0
2017-Feb-19 16:33N 40°38' W 074°08'0 0.0
2017-Feb-19 15:33N 40°38' W 074°08'5 0.3
2017-Feb-19 02:27N 40°35' W 074°12'1 0.6
2017-Feb-19 01:28N 40°35' W 074°13'3 2.9
2017-Feb-19 00:32N 40°33' W 074°15'0 0.1
2017-Feb-18 22:31N 40°33' W 074°15'7 7.6
2017-Feb-18 21:33N 40°39' W 074°10'2 1.5
2017-Feb-18 20:33N 40°38' W 074°08'0 0.0
2017-Feb-18 19:33N 40°38' W 074°08'0 0.0
2017-Feb-18 18:33N 40°38' W 074°08'0 0.0
2017-Feb-18 17:33N 40°38' W 074°08'0 0.2
2017-Feb-18 16:32N 40°39' W 074°08'1 1.3
2017-Feb-18 15:33N 40°39' W 074°10'3 2.7
2017-Feb-18 14:33N 40°36' W 074°12'0 0.0
2017-Feb-18 00:33N 40°37' W 074°12'2 2.4
2017-Feb-17 23:33N 40°39' W 074°10'0 0.0
2017-Feb-17 22:33N 40°39' W 074°10'3 2.6
2017-Feb-17 21:33N 40°37' W 074°12'1 0.2
2017-Feb-17 15:21N 40°36' W 074°12'4 4.9
2017-Feb-17 14:33N 40°39' W 074°09'1 1.3
2017-Feb-17 13:33N 40°39' W 074°07'5 1.5
2017-Feb-17 10:22N 40°35' W 074°12'0 0.0
2017-Feb-17 08:24N 40°35' W 074°12'0 0.0
2017-Feb-17 07:31N 40°35' W 074°12'0 0.0
2017-Feb-17 06:32N 40°35' W 074°12'0 0.0
2017-Feb-17 05:16N 40°35' W 074°12'0 0.0
2017-Feb-17 04:33N 40°35' W 074°12'0 0.0
2017-Feb-17 03:33N 40°35' W 074°12'0 0.0
2017-Feb-17 02:33N 40°35' W 074°12'0 0.0
2017-Feb-16 18:28N 40°36' W 074°12'1 0.9
2017-Feb-16 17:33N 40°37' W 074°12'1 1.2
2017-Feb-16 16:33N 40°38' W 074°12'3 3.2
2017-Feb-16 15:32N 40°38' W 074°08'0 0.0
2017-Feb-16 14:33N 40°38' W 074°08'0 0.0
2017-Feb-16 13:32N 40°38' W 074°08'0 0.0
2017-Feb-16 12:33N 40°38' W 074°08'0 0.0
2017-Feb-16 07:33N 40°38' W 074°08'  
Track history (hours):
 
Tides and Currents Weather Stations Pressure Air Temp Water Temp Dewpoint Dewpoint Depression Visibility Wind Speed Wind Dir Waves Ship Positions

Al Cenac

Owner: Caillou Island Towing Co, Inc., Houma, LA. More information available from US FCC via Universal Licensing System and Coast Guard Vessel Documentation Center.

Last reported at 2017-Feb-26 07:33 UTC. Time now 2017-Feb-26 07:41 UTC.
Position N 40°38' W 074°08'.

; draft 10 m.

Type: Tug. MMSI: 367158530.

Date/timePositionNaut miles runAvg speedWind from/ knotsBaromVisibWave heightAir tempDewpointWater temp
2017-Feb-26 07:33N 40°38' W 074°08'4 3.6
2017-Feb-26 06:33N 40°42' W 074°07'2 2.0
2017-Feb-26 05:33N 40°40' W 074°08'2 1.7
2017-Feb-26 04:33N 40°38' W 074°08'0 0.0
2017-Feb-26 03:33N 40°38' W 074°08'0 0.0
2017-Feb-26 02:33N 40°38' W 074°08'0 0.0
2017-Feb-26 01:33N 40°38' W 074°08'0 0.0
2017-Feb-26 00:31N 40°38' W 074°08'3 2.9
2017-Feb-25 23:33N 40°38' W 074°12'2 2.1
2017-Feb-25 22:33N 40°36' W 074°12'0 0.0
2017-Feb-25 21:33N 40°36' W 074°12'0 0.0
2017-Feb-25 20:32N 40°36' W 074°12'0 0.0
2017-Feb-25 19:33N 40°36' W 074°12'0 0.0
2017-Feb-25 18:32N 40°36' W 074°12'0 0.0
2017-Feb-25 17:33N 40°36' W 074°12'0 0.0
2017-Feb-25 16:34N 40°36' W 074°12'0 0.0
2017-Feb-25 15:33N 40°36' W 074°12'0 0.0
2017-Feb-25 14:33N 40°36' W 074°12'0 0.2
2017-Feb-25 13:21N 40°36' W 074°12'0 0.2
2017-Feb-25 12:28N 40°36' W 074°12'0 0.0
2017-Feb-25 11:33N 40°36' W 074°12'0 0.0
2017-Feb-25 10:33N 40°36' W 074°12'0 0.0
2017-Feb-25 09:33N 40°36' W 074°12'1 1.1
2017-Feb-25 08:29N 40°35' W 074°13'1 0.7
2017-Feb-25 07:33N 40°36' W 074°12'0 0.0
2017-Feb-25 06:33N 40°36' W 074°12'2 1.0
2017-Feb-25 04:31N 40°34' W 074°13'2 0.5
2017-Feb-25 00:23N 40°36' W 074°12'4 5.3
2017-Feb-24 23:33N 40°38' W 074°08'0 0.0
2017-Feb-24 22:28N 40°38' W 074°08'0 0.1
2017-Feb-24 21:33N 40°38' W 074°08'0 0.0
2017-Feb-24 20:33N 40°38' W 074°08'0 0.0
2017-Feb-24 19:33N 40°38' W 074°08'0 0.0
2017-Feb-24 18:33N 40°38' W 074°08'0 0.0
2017-Feb-24 17:33N 40°38' W 074°08'3 3.4
2017-Feb-24 16:33N 40°38' W 074°12'1 0.8
2017-Feb-24 15:33N 40°38' W 074°12'3 2.9
2017-Feb-24 14:32N 40°38' W 074°08'0 0.0
2017-Feb-24 13:32N 40°38' W 074°08'0 0.0
2017-Feb-24 12:33N 40°38' W 074°08'0 0.0
2017-Feb-24 11:33N 40°38' W 074°08'0 0.0
2017-Feb-24 10:33N 40°38' W 074°08'0 0.0
2017-Feb-24 09:33N 40°38' W 074°08'2 1.8
2017-Feb-24 08:33N 40°39' W 074°06'0 0.2
2017-Feb-24 06:33N 40°39' W 074°05'1 1.2
2017-Feb-24 05:33N 40°39' W 074°07'1 0.9
2017-Feb-24 04:32N 40°38' W 074°08'0 0.0
2017-Feb-24 03:33N 40°38' W 074°08'0 0.0
2017-Feb-24 02:33N 40°38' W 074°08'0 0.0
2017-Feb-24 01:33N 40°38' W 074°08'0 0.0
2017-Feb-24 00:33N 40°38' W 074°08'0 0.0
2017-Feb-23 23:33N 40°38' W 074°08'0 0.0
2017-Feb-23 22:29N 40°38' W 074°08'3 3.1
2017-Feb-23 21:33N 40°39' W 074°04'4 3.8
2017-Feb-23 20:33N 40°41' W 074°00'4 3.6
2017-Feb-23 19:33N 40°40' W 074°04'7 1.0
2017-Feb-23 12:21N 40°36' W 074°12'4 5.2
2017-Feb-23 11:33N 40°39' W 074°08'0 0.4
2017-Feb-23 10:33N 40°38' W 074°08'0 0.0
2017-Feb-23 09:33N 40°38' W 074°08'0 0.0
2017-Feb-23 08:33N 40°38' W 074°08'0 0.0
2017-Feb-23 07:33N 40°38' W 074°08'0 0.0
2017-Feb-23 06:33N 40°38' W 074°08'0 0.0
2017-Feb-23 05:33N 40°38' W 074°08'0 0.0
2017-Feb-23 04:33N 40°38' W 074°08'0 0.0
2017-Feb-23 03:33N 40°38' W 074°08'0 0.0
2017-Feb-23 02:33N 40°38' W 074°08'0 0.0
2017-Feb-23 01:30N 40°38' W 074°08'0 0.0
2017-Feb-23 00:33N 40°38' W 074°08'0 0.0
2017-Feb-22 23:33N 40°38' W 074°08'0 0.0
2017-Feb-22 22:33N 40°38' W 074°08'0 0.0
2017-Feb-22 21:33N 40°38' W 074°08'0 0.0
2017-Feb-22 20:33N 40°38' W 074°08'0 0.0
2017-Feb-22 19:33N 40°38' W 074°08'0 0.0
2017-Feb-22 18:33N 40°38' W 074°08'0 0.0
2017-Feb-22 17:33N 40°38' W 074°08'1 0.5
2017-Feb-22 16:33N 40°39' W 074°07'0 0.1
2017-Feb-22 15:33N 40°39' W 074°07'0 0.5
2017-Feb-22 14:33N 40°38' W 074°08'0 0.0
2017-Feb-22 13:33N 40°38' W 074°08'0 0.0
2017-Feb-22 12:33N 40°38' W 074°08'3 2.9
2017-Feb-22 11:33N 40°40' W 074°05'1 1.2
2017-Feb-22 10:33N 40°39' W 074°05'2 2.4
2017-Feb-22 09:33N 40°38' W 074°08'0 0.0
2017-Feb-22 08:33N 40°38' W 074°08'0 0.0
2017-Feb-22 07:33N 40°38' W 074°08'0 0.0
2017-Feb-22 06:33N 40°38' W 074°08'0 0.0
2017-Feb-22 05:33N 40°38' W 074°08'0 0.0
2017-Feb-22 04:33N 40°38' W 074°08'0 0.0
2017-Feb-22 03:33N 40°38' W 074°08'0 0.0
2017-Feb-22 02:33N 40°38' W 074°08'0 0.0
2017-Feb-22 01:33N 40°38' W 074°08'0 0.0
2017-Feb-22 00:33N 40°38' W 074°08'0 0.0
2017-Feb-21 23:33N 40°38' W 074°08'0 0.0
2017-Feb-21 21:33N 40°38' W 074°08'0 0.0
2017-Feb-21 20:33N 40°38' W 074°08'0 0.0
2017-Feb-21 19:33N 40°38' W 074°08'0 0.0
2017-Feb-21 18:33N 40°38' W 074°08'0 0.0
2017-Feb-21 17:33N 40°38' W 074°08'0 0.0
2017-Feb-21 16:33N 40°38' W 074°08'0 0.0
2017-Feb-21 15:33N 40°38' W 074°08'0 0.0
2017-Feb-21 14:33N 40°38' W 074°08'0 0.0
2017-Feb-21 13:33N 40°38' W 074°08'0 0.0
2017-Feb-21 12:33N 40°38' W 074°08'0 0.0
2017-Feb-21 11:33N 40°38' W 074°08'3 3.0
2017-Feb-21 10:33N 40°39' W 074°04'3 3.5
2017-Feb-21 09:33N 40°39' W 074°08'4 3.9
2017-Feb-21 08:33N 40°36' W 074°12'0 0.0
2017-Feb-21 07:33N 40°36' W 074°12'0 0.0
2017-Feb-21 06:33N 40°36' W 074°12'0 0.0
2017-Feb-21 05:33N 40°36' W 074°12'0 0.0
2017-Feb-21 04:33N 40°36' W 074°12'0 0.0
2017-Feb-21 03:33N 40°36' W 074°12'0 0.0
2017-Feb-21 02:33N 40°36' W 074°12'0 0.0
2017-Feb-21 01:29N 40°36' W 074°12'0 0.0
2017-Feb-21 00:33N 40°36' W 074°12'0 0.0
2017-Feb-20 23:12N 40°36' W 074°12'0 0.6
2017-Feb-20 22:32N 40°35' W 074°12'0 0.4
2017-Feb-20 21:33N 40°36' W 074°12'0 0.0
2017-Feb-20 20:33N 40°36' W 074°12'3 2.3
2017-Feb-20 19:04N 40°33' W 074°15'1 1.4
2017-Feb-20 18:33N 40°32' W 074°15'0 0.0
2017-Feb-20 17:33N 40°32' W 074°15'4 3.9
2017-Feb-20 16:30N 40°36' W 074°12'0 0.0
2017-Feb-20 15:24N 40°36' W 074°12'0 0.0
2017-Feb-20 14:33N 40°36' W 074°12'0 0.0
2017-Feb-20 13:33N 40°36' W 074°12'1 0.2
2017-Feb-20 10:27N 40°36' W 074°12'3 3.0
2017-Feb-20 09:33N 40°39' W 074°11'2 2.3
2017-Feb-20 08:33N 40°38' W 074°08'0 0.2
2017-Feb-20 07:30N 40°39' W 074°08'0 0.0
2017-Feb-20 06:33N 40°38' W 074°08'0 0.0
2017-Feb-20 05:33N 40°38' W 074°08'0 0.0
2017-Feb-20 04:33N 40°38' W 074°08'0 0.0
2017-Feb-20 03:33N 40°38' W 074°08'0 0.0
2017-Feb-20 02:33N 40°38' W 074°08'0 0.0
2017-Feb-20 01:33N 40°38' W 074°08'0 0.0
2017-Feb-20 00:33N 40°38' W 074°08'0 0.0
2017-Feb-19 23:33N 40°38' W 074°08'0 0.0
2017-Feb-19 22:33N 40°38' W 074°08'0 0.0
2017-Feb-19 21:33N 40°38' W 074°08'0 0.0
2017-Feb-19 20:33N 40°38' W 074°08'0 0.0
2017-Feb-19 19:33N 40°38' W 074°08'0 0.0
2017-Feb-19 18:33N 40°38' W 074°08'0 0.0
2017-Feb-19 17:33N 40°38' W 074°08'0 0.0
2017-Feb-19 16:33N 40°38' W 074°08'0 0.0
2017-Feb-19 15:33N 40°38' W 074°08'5 0.3
2017-Feb-19 02:27N 40°35' W 074°12'1 0.6
2017-Feb-19 01:28N 40°35' W 074°13'3 2.9
2017-Feb-19 00:32N 40°33' W 074°15'0 0.1
2017-Feb-18 22:31N 40°33' W 074°15'7 7.6
2017-Feb-18 21:33N 40°39' W 074°10'2 1.5
2017-Feb-18 20:33N 40°38' W 074°08'0 0.0
2017-Feb-18 19:33N 40°38' W 074°08'0 0.0
2017-Feb-18 18:33N 40°38' W 074°08'0 0.0
2017-Feb-18 17:33N 40°38' W 074°08'0 0.2
2017-Feb-18 16:32N 40°39' W 074°08'1 1.3
2017-Feb-18 15:33N 40°39' W 074°10'3 2.7
2017-Feb-18 14:33N 40°36' W 074°12'0 0.0
2017-Feb-18 00:33N 40°37' W 074°12'2 2.4
2017-Feb-17 23:33N 40°39' W 074°10'0 0.0
2017-Feb-17 22:33N 40°39' W 074°10'3 2.6
2017-Feb-17 21:33N 40°37' W 074°12'1 0.2
2017-Feb-17 15:21N 40°36' W 074°12'4 4.9
2017-Feb-17 14:33N 40°39' W 074°09'1 1.3
2017-Feb-17 13:33N 40°39' W 074°07'5 1.5
2017-Feb-17 10:22N 40°35' W 074°12'0 0.0
2017-Feb-17 08:24N 40°35' W 074°12'0 0.0
2017-Feb-17 07:31N 40°35' W 074°12'0 0.0
2017-Feb-17 06:32N 40°35' W 074°12'0 0.0
2017-Feb-17 05:16N 40°35' W 074°12'0 0.0
2017-Feb-17 04:33N 40°35' W 074°12'0 0.0
2017-Feb-17 03:33N 40°35' W 074°12'0 0.0
2017-Feb-17 02:33N 40°35' W 074°12'0 0.0
2017-Feb-16 18:28N 40°36' W 074°12'1 0.9
2017-Feb-16 17:33N 40°37' W 074°12'1 1.2
2017-Feb-16 16:33N 40°38' W 074°12'3 3.2
2017-Feb-16 15:32N 40°38' W 074°08'0 0.0
2017-Feb-16 14:33N 40°38' W 074°08'0 0.0
2017-Feb-16 13:32N 40°38' W 074°08'0 0.0
2017-Feb-16 12:33N 40°38' W 074°08'0 0.0
2017-Feb-16 07:33N 40°38' W 074°08'  

Dump ship's entire track history